createdAt,value
2019-05-03T00:01:52.721Z,12.43
2019-05-03T00:04:17.194Z,12.27
2019-05-03T00:06:43.938Z,12.20
2019-05-03T00:09:11.936Z,12.10
2019-05-03T00:11:37.451Z,12.16
2019-05-03T00:14:04.198Z,12.11
2019-05-03T00:16:32.526Z,12.18
2019-05-03T00:19:00.930Z,12.28
2019-05-03T00:21:25.362Z,12.19
2019-05-03T00:23:52.342Z,12.19
2019-05-03T00:26:18.847Z,12.55
2019-05-03T00:28:45.609Z,12.78
2019-05-03T00:31:12.591Z,12.44
2019-05-03T00:33:39.082Z,12.33
2019-05-03T00:36:26.096Z,12.28
2019-05-03T00:38:54.394Z,12.11
2019-05-03T00:41:21.559Z,11.76
2019-05-03T00:43:47.859Z,11.67
2019-05-03T00:46:14.709Z,11.50
2019-05-03T00:48:42.996Z,11.59
2019-05-03T00:51:08.181Z,11.45
2019-05-03T00:53:34.927Z,11.60
2019-05-03T00:56:01.831Z,11.72
2019-05-03T00:58:28.382Z,11.63
2019-05-03T01:00:55.110Z,11.55
2019-05-03T01:03:22.009Z,11.62
2019-05-03T01:05:48.589Z,11.34
2019-05-03T01:08:15.340Z,11.17
2019-05-03T01:10:42.195Z,11.04
2019-05-03T01:13:08.808Z,11.02
2019-05-03T01:15:45.856Z,11.15
2019-05-03T01:18:12.597Z,11.14
2019-05-03T01:20:39.322Z,11.08
2019-05-03T01:23:06.069Z,11.07
2019-05-03T01:25:35.425Z,11.09
2019-05-03T01:28:01.450Z,11.17
2019-05-03T01:30:26.274Z,11.16
2019-05-03T01:32:53.009Z,11.25
2019-05-03T01:35:21.978Z,11.21
2019-05-03T01:37:47.511Z,11.17
2019-05-03T01:40:14.238Z,11.20
2019-05-03T01:42:42.611Z,11.12
2019-05-03T01:45:08.110Z,11.17
2019-05-03T01:47:41.952Z,11.37
2019-05-03T01:50:16.669Z,11.73
2019-05-03T01:52:43.514Z,11.48
2019-05-03T01:55:13.918Z,11.49
2019-05-03T01:57:36.981Z,11.50
2019-05-03T02:00:04.728Z,11.56
2019-05-03T02:02:52.560Z,12.12
2019-05-03T02:05:34.186Z,12.03
2019-05-03T02:08:02.117Z,11.99
2019-05-03T02:10:27.651Z,11.87
2019-05-03T02:12:54.405Z,11.96
2019-05-03T02:15:22.098Z,12.15
2019-05-03T02:17:47.854Z,11.62
2019-05-03T02:20:14.605Z,11.21
2019-05-03T02:22:42.765Z,11.29
2019-05-03T02:25:08.070Z,11.09
2019-05-03T02:27:34.786Z,11.25
2019-05-03T02:30:03.099Z,11.30
2019-05-03T02:32:28.252Z,11.48
2019-05-03T02:34:54.980Z,11.51
2019-05-03T02:37:22.502Z,11.62
2019-05-03T02:39:53.028Z,11.57
2019-05-03T02:42:17.371Z,11.69
2019-05-03T02:44:46.181Z,11.78
2019-05-03T02:47:23.099Z,11.84
2019-05-03T02:49:58.674Z,11.94
2019-05-03T02:52:31.252Z,12.01
2019-05-03T02:54:58.022Z,11.97
2019-05-03T02:57:25.904Z,12.01
2019-05-03T02:59:51.494Z,11.90
2019-05-03T03:02:18.219Z,11.98
2019-05-03T03:04:45.430Z,12.03
2019-05-03T03:07:11.705Z,11.92
2019-05-03T03:09:38.426Z,12.00
2019-05-03T03:12:06.136Z,11.87
2019-05-03T03:14:31.877Z,11.92
2019-05-03T03:16:58.615Z,11.86
2019-05-03T03:19:26.412Z,11.87
2019-05-03T03:21:56.169Z,12.07
2019-05-03T03:24:20.959Z,11.65
2019-05-03T03:26:47.706Z,11.62
2019-05-03T03:29:16.073Z,11.69
2019-05-03T03:32:09.618Z,11.72
2019-05-03T03:34:38.779Z,11.47
2019-05-03T03:37:06.585Z,11.53
2019-05-03T03:39:28.904Z,11.66
2019-05-03T03:41:55.954Z,11.56
2019-05-03T03:44:22.362Z,11.52
2019-05-03T03:46:49.102Z,11.40
2019-05-03T03:49:15.883Z,11.33
2019-05-03T03:51:42.599Z,11.34
2019-05-03T03:54:09.345Z,11.38
2019-05-03T03:56:53.772Z,11.42
2019-05-03T03:59:02.800Z,11.43
2019-05-03T04:01:29.511Z,11.59
2019-05-03T04:03:56.303Z,11.76
2019-05-03T04:06:26.926Z,12.42
2019-05-03T04:08:52.422Z,12.68
2019-05-03T04:11:19.178Z,12.82
2019-05-03T04:13:45.916Z,12.16
2019-05-03T04:16:36.258Z,11.63
2019-05-03T04:19:06.010Z,11.45
2019-05-03T04:21:32.643Z,11.10
2019-05-03T04:23:59.369Z,11.00
2019-05-03T04:26:29.477Z,10.83
2019-05-03T04:28:55.943Z,10.74
2019-05-03T04:31:20.131Z,10.65
2019-05-03T04:33:46.866Z,10.73
2019-05-03T04:36:15.875Z,10.75
2019-05-03T04:38:40.328Z,10.83
2019-05-03T04:41:07.050Z,10.74
2019-05-03T04:43:35.651Z,10.79
2019-05-03T04:46:06.669Z,10.76
2019-05-03T04:48:30.166Z,10.73
2019-05-03T04:50:56.887Z,10.73
2019-05-03T04:53:25.812Z,10.62
2019-05-03T04:55:50.364Z,10.70
2019-05-03T04:58:17.111Z,10.70
2019-05-03T05:00:46.421Z,10.76
2019-05-03T05:03:10.659Z,10.61
2019-05-03T05:05:37.385Z,10.50
2019-05-03T05:08:05.937Z,10.50
2019-05-03T05:10:30.858Z,10.54
2019-05-03T05:12:57.583Z,10.54
2019-05-03T05:15:26.394Z,10.51
2019-05-03T05:18:16.087Z,10.43
2019-05-03T05:20:45.863Z,10.50
2019-05-03T05:23:14.680Z,10.56
2019-05-03T05:25:44.520Z,10.48
2019-05-03T05:28:20.006Z,10.50
2019-05-03T05:30:46.729Z,10.70
2019-05-03T05:33:19.310Z,10.52
2019-05-03T05:35:46.026Z,10.60
2019-05-03T05:38:14.917Z,10.59
2019-05-03T05:40:39.554Z,10.63
2019-05-03T05:43:06.299Z,10.98
2019-05-03T05:45:34.794Z,11.13
2019-05-03T05:48:05.171Z,11.16
2019-05-03T05:50:34.506Z,11.27
2019-05-03T05:52:59.606Z,11.30
2019-05-03T05:55:46.950Z,11.34
2019-05-03T05:58:17.532Z,11.40
2019-05-03T06:00:50.325Z,11.68
2019-05-03T06:03:17.085Z,11.51
2019-05-03T06:05:44.701Z,11.48
2019-05-03T06:08:18.606Z,11.48
2019-05-03T06:10:52.034Z,11.46
2019-05-03T06:13:24.178Z,11.67
2019-05-03T06:16:12.690Z,11.56
2019-05-03T06:18:45.293Z,11.47
2019-05-03T06:21:18.162Z,11.36
2019-05-03T06:23:50.610Z,11.37
2019-05-03T06:26:24.917Z,11.55
2019-05-03T06:28:50.038Z,11.68
2019-05-03T06:31:22.782Z,12.00
2019-05-03T06:33:48.469Z,11.69
2019-05-03T06:36:15.361Z,11.76
2019-05-03T06:38:42.313Z,11.60
2019-05-03T06:41:08.666Z,11.73
2019-05-03T06:43:39.595Z,11.59
2019-05-03T06:46:02.182Z,11.85
2019-05-03T06:48:31.960Z,11.96
2019-05-03T06:53:34.890Z,11.71
2019-05-03T06:56:01.635Z,11.91
2019-05-03T06:58:33.507Z,11.94
2019-05-03T07:01:00.038Z,11.74
2019-05-03T07:03:38.644Z,11.72
2019-05-03T07:06:11.046Z,11.81
2019-05-03T07:08:52.046Z,11.91
2019-05-03T07:11:18.790Z,11.69
2019-05-03T07:13:45.510Z,12.07
2019-05-03T07:16:12.266Z,12.02
2019-05-03T07:18:38.997Z,11.77
2019-05-03T07:21:05.715Z,11.79
2019-05-03T07:23:32.430Z,11.78
2019-05-03T07:25:59.234Z,11.72
2019-05-03T07:28:25.967Z,12.31
2019-05-03T07:30:54.378Z,12.80
2019-05-03T07:33:25.942Z,13.31
2019-05-03T07:35:54.692Z,13.64
2019-05-03T07:38:19.402Z,13.76
2019-05-03T07:40:46.138Z,14.08
2019-05-03T07:43:14.751Z,14.26
2019-05-03T07:45:39.635Z,14.17
2019-05-03T07:48:06.362Z,14.54
2019-05-03T07:50:33.366Z,14.50
2019-05-03T07:52:59.850Z,14.64
2019-05-03T07:55:32.323Z,15.08
2019-05-03T07:57:59.119Z,14.72
2019-05-03T08:00:25.878Z,15.43
2019-05-03T08:02:52.622Z,14.87
2019-05-03T08:05:19.379Z,15.52
2019-05-03T08:07:46.322Z,15.24
2019-05-03T08:10:15.188Z,15.24
2019-05-03T08:12:39.566Z,14.97
2019-05-03T08:15:06.291Z,15.60
2019-05-03T08:17:34.890Z,15.36
2019-05-03T08:20:01.741Z,16.12
2019-05-03T08:22:28.475Z,16.29
2019-05-03T08:24:55.680Z,15.79
2019-05-03T08:27:21.935Z,15.37
2019-05-03T08:29:48.699Z,15.22
2019-05-03T08:32:26.562Z,15.01
2019-05-03T08:34:59.094Z,14.98
2019-05-03T08:37:31.750Z,14.63
2019-05-03T08:39:58.477Z,14.61
2019-05-03T08:42:25.537Z,14.48
2019-05-03T08:44:52.064Z,14.19
2019-05-03T08:47:18.815Z,14.10
2019-05-03T08:49:45.554Z,14.15
2019-05-03T08:52:12.330Z,14.23
2019-05-03T08:54:39.058Z,14.34
2019-05-03T08:57:06.344Z,14.62
2019-05-03T08:59:32.946Z,14.40
2019-05-03T09:02:04.540Z,14.44
2019-05-03T09:04:36.026Z,14.40
2019-05-03T09:06:54.878Z,14.17
2019-05-03T09:09:25.441Z,14.28
2019-05-03T09:11:51.587Z,14.44
2019-05-03T09:14:18.318Z,14.36
2019-05-03T09:16:45.106Z,14.48
2019-05-03T09:19:11.850Z,14.24
2019-05-03T09:21:38.606Z,14.38
2019-05-03T09:24:05.364Z,14.77
2019-05-03T09:26:32.110Z,15.40
2019-05-03T09:28:58.856Z,16.58
2019-05-03T09:31:25.587Z,16.23
2019-05-03T09:33:54.562Z,15.82
2019-05-03T09:36:19.146Z,15.53
2019-05-03T09:38:46.005Z,15.60
2019-05-03T09:41:14.851Z,15.09
2019-05-03T09:43:39.390Z,15.15
2019-05-03T09:46:06.121Z,15.73
2019-05-03T09:48:34.675Z,16.47
2019-05-03T09:50:59.790Z,16.93
2019-05-03T09:53:27.542Z,17.24
2019-05-03T09:55:55.500Z,17.53
2019-05-03T09:58:21.039Z,17.46
2019-05-03T10:00:47.774Z,17.42
2019-05-03T10:03:14.616Z,17.78
2019-05-03T10:05:41.389Z,17.24
2019-05-03T10:08:08.234Z,16.86
2019-05-03T10:10:40.772Z,16.40
2019-05-03T10:13:14.421Z,16.07
2019-05-03T10:15:38.446Z,16.41
2019-05-03T10:18:10.307Z,16.72
2019-05-03T10:20:31.972Z,16.77
2019-05-03T10:23:05.188Z,16.61
2019-05-03T10:25:30.638Z,16.82
2019-05-03T10:27:57.419Z,16.63
2019-05-03T10:30:25.705Z,17.29
2019-05-03T10:32:56.476Z,18.11
2019-05-03T10:35:24.591Z,19.04
2019-05-03T10:37:50.079Z,19.55
2019-05-03T10:40:24.344Z,19.42
2019-05-03T10:42:50.406Z,19.16
2019-05-03T10:45:17.154Z,19.96
2019-05-03T10:47:45.664Z,20.04
2019-05-03T10:50:10.662Z,19.41
2019-05-03T10:52:41.028Z,18.37
2019-05-03T10:55:07.770Z,18.67
2019-05-03T10:57:35.564Z,18.34
2019-05-03T11:00:02.062Z,17.97
2019-05-03T11:02:36.111Z,17.99
2019-05-03T11:05:01.443Z,16.63
2019-05-03T11:07:28.277Z,16.63
2019-05-03T11:09:55.248Z,16.89
2019-05-03T11:12:21.790Z,16.55
2019-05-03T11:14:48.543Z,16.07
2019-05-03T11:17:15.326Z,16.76
2019-05-03T11:19:42.179Z,16.68
2019-05-03T11:22:08.894Z,17.15
2019-05-03T11:24:35.868Z,16.99
2019-05-03T11:27:04.110Z,16.97
2019-05-03T11:29:30.892Z,17.34
2019-05-03T11:32:08.329Z,17.36
2019-05-03T11:34:35.473Z,17.33
2019-05-03T11:37:22.051Z,17.13
2019-05-03T11:39:48.801Z,17.04
2019-05-03T11:42:18.401Z,16.42
2019-05-03T11:44:44.537Z,16.71
2019-05-03T11:47:09.048Z,16.66
2019-05-03T11:49:35.803Z,16.61
2019-05-03T11:52:02.555Z,16.62
2019-05-03T11:54:29.311Z,16.84
2019-05-03T11:56:56.155Z,16.75
2019-05-03T11:59:22.902Z,16.97
2019-05-03T12:01:58.063Z,17.31
2019-05-03T12:04:25.056Z,16.94
2019-05-03T12:06:52.402Z,16.70
2019-05-03T12:09:19.190Z,16.32
2019-05-03T12:11:45.932Z,16.38
2019-05-03T12:14:15.212Z,15.52
2019-05-03T12:17:12.021Z,14.93
2019-05-03T12:19:16.826Z,14.90
2019-05-03T12:21:36.967Z,14.81
2019-05-03T12:24:01.762Z,14.78
2019-05-03T12:26:40.575Z,14.83
2019-05-03T12:28:54.578Z,14.89
2019-05-03T12:31:33.423Z,15.62
2019-05-03T12:33:48.043Z,15.78
2019-05-03T12:36:15.522Z,16.29
2019-05-03T12:38:41.752Z,15.96
2019-05-03T12:41:08.495Z,16.69
2019-05-03T12:43:35.282Z,16.73
2019-05-03T12:46:01.995Z,16.43
2019-05-03T12:48:28.730Z,16.82
2019-05-03T12:50:55.878Z,16.87
2019-05-03T12:53:22.220Z,15.87
2019-05-03T12:55:50.000Z,15.55
2019-05-03T12:58:16.739Z,15.76
2019-05-03T13:01:04.939Z,16.37
2019-05-03T13:03:35.660Z,16.71
2019-05-03T13:06:05.276Z,16.99
2019-05-03T13:08:35.575Z,16.73
2019-05-03T13:11:02.231Z,16.49
2019-05-03T13:13:28.970Z,15.69
2019-05-03T13:15:55.715Z,15.31
2019-05-03T13:18:22.442Z,15.47
2019-05-03T13:20:49.186Z,15.37
2019-05-03T13:23:15.954Z,15.42
2019-05-03T13:25:44.609Z,14.78
2019-05-03T13:28:09.426Z,14.96
2019-05-03T13:30:36.207Z,14.66
2019-05-03T13:33:02.930Z,14.40
2019-05-03T13:35:29.667Z,14.22
2019-05-03T13:37:56.407Z,14.06
2019-05-03T13:40:24.977Z,13.89
2019-05-03T13:42:57.644Z,13.85
2019-05-03T13:45:16.614Z,13.85
2019-05-03T13:47:44.712Z,13.51
2019-05-03T13:50:10.114Z,13.38
2019-05-03T13:52:37.895Z,13.50
2019-05-03T13:55:05.382Z,14.43
2019-05-03T13:57:31.387Z,14.48
2019-05-03T13:59:58.210Z,14.89
2019-05-03T14:02:25.042Z,15.67
2019-05-03T14:04:52.919Z,15.75
2019-05-03T14:07:18.522Z,16.17
2019-05-03T14:09:45.394Z,16.49
2019-05-03T14:12:11.987Z,16.94
2019-05-03T14:14:45.382Z,16.62
2019-05-03T14:17:11.243Z,16.71
2019-05-03T14:19:38.094Z,16.67
2019-05-03T14:22:05.487Z,16.79
2019-05-03T14:24:32.231Z,16.37
2019-05-03T14:26:58.966Z,17.11
2019-05-03T14:29:25.718Z,16.46
2019-05-03T14:31:54.423Z,16.62
2019-05-03T14:34:19.204Z,16.75
2019-05-03T14:36:45.954Z,17.17
2019-05-03T14:39:14.858Z,17.44
2019-05-03T14:41:39.427Z,17.56
2019-05-03T14:44:06.147Z,17.21
2019-05-03T14:46:34.160Z,17.60
2019-05-03T14:48:59.663Z,17.52
2019-05-03T14:51:26.518Z,17.31
2019-05-03T14:53:54.266Z,17.44
2019-05-03T14:56:25.408Z,16.97
2019-05-03T14:59:11.706Z,17.40
2019-05-03T15:01:44.259Z,18.01
2019-05-03T15:04:11.008Z,18.13
2019-05-03T15:06:37.719Z,18.09
2019-05-03T15:09:05.453Z,17.69
2019-05-03T15:11:32.058Z,17.02
2019-05-03T15:13:58.790Z,17.22
2019-05-03T15:16:25.518Z,17.30
2019-05-03T15:18:52.297Z,17.54
2019-05-03T15:21:19.006Z,17.54
2019-05-03T15:23:45.754Z,17.40
2019-05-03T15:26:12.525Z,17.06
2019-05-03T15:28:40.265Z,17.09
2019-05-03T15:31:06.990Z,16.82
2019-05-03T15:33:35.337Z,16.84
2019-05-03T15:36:00.503Z,17.05
2019-05-03T15:38:27.327Z,17.15
2019-05-03T15:40:54.748Z,17.16
2019-05-03T15:43:28.556Z,17.11
2019-05-03T15:46:05.557Z,16.77
2019-05-03T15:48:36.581Z,16.86
2019-05-03T15:51:04.769Z,16.71
2019-05-03T15:53:30.118Z,16.60
2019-05-03T15:55:56.934Z,16.61
2019-05-03T15:58:24.872Z,16.96
2019-05-03T16:00:50.602Z,16.66
2019-05-03T16:03:17.371Z,16.70
2019-05-03T16:05:44.749Z,16.62
2019-05-03T16:08:10.846Z,16.53
2019-05-03T16:10:37.666Z,16.41
2019-05-03T16:13:04.841Z,16.29
2019-05-03T16:15:31.163Z,16.12
2019-05-03T16:17:57.914Z,16.15
2019-05-03T16:20:25.242Z,16.21
2019-05-03T16:22:51.628Z,15.50
2019-05-03T16:25:18.415Z,15.30
2019-05-03T16:27:51.842Z,13.86
2019-05-03T16:30:36.396Z,13.34
2019-05-03T16:33:01.278Z,13.12
2019-05-03T16:35:28.029Z,12.87
2019-05-03T16:37:54.750Z,12.45
2019-05-03T16:40:21.493Z,12.38
2019-05-03T16:42:48.234Z,12.28
2019-05-03T16:45:17.030Z,12.29
2019-05-03T16:47:41.918Z,12.41
2019-05-03T16:50:08.672Z,12.39
2019-05-03T16:52:35.515Z,12.53
2019-05-03T16:55:02.358Z,12.88
2019-05-03T16:57:29.112Z,13.04
2019-05-03T16:59:55.870Z,13.20
2019-05-03T17:02:24.514Z,13.62
2019-05-03T17:04:55.679Z,13.99
2019-05-03T17:07:31.050Z,14.05
2019-05-03T17:10:01.950Z,14.46
2019-05-03T17:12:29.654Z,15.41
2019-05-03T17:14:56.983Z,15.39
2019-05-03T17:17:25.114Z,15.74
2019-05-03T17:19:49.913Z,16.23
2019-05-03T17:22:17.337Z,15.71
2019-05-03T17:24:44.445Z,15.44
2019-05-03T17:27:10.241Z,15.50
2019-05-03T17:29:36.994Z,15.63
2019-05-03T17:32:04.931Z,15.92
2019-05-03T17:34:30.502Z,16.34
2019-05-03T17:36:57.217Z,17.23
2019-05-03T17:39:29.624Z,17.51
2019-05-03T17:42:06.757Z,16.70
2019-05-03T17:44:39.111Z,16.58
2019-05-03T17:47:05.835Z,16.14
2019-05-03T17:49:32.569Z,15.97
2019-05-03T17:52:19.730Z,16.30
2019-05-03T17:55:06.123Z,16.21
2019-05-03T17:57:50.831Z,16.49
2019-05-03T18:00:23.357Z,16.32
2019-05-03T18:02:50.110Z,16.84
2019-05-03T18:05:22.671Z,16.17
2019-05-03T18:08:09.009Z,16.75
2019-05-03T18:10:36.717Z,15.97
2019-05-03T18:13:03.447Z,15.89
2019-05-03T18:15:30.183Z,15.67
2019-05-03T18:17:56.919Z,15.23
2019-05-03T18:20:25.461Z,15.12
2019-05-03T18:22:50.378Z,14.84
2019-05-03T18:25:17.141Z,14.71
2019-05-03T18:27:44.581Z,15.31
2019-05-03T18:30:10.611Z,14.26
2019-05-03T18:32:37.347Z,14.47
2019-05-03T18:35:51.022Z,13.72
2019-05-03T18:38:17.749Z,13.53
2019-05-03T18:40:44.859Z,13.39
2019-05-03T18:43:15.314Z,13.05
2019-05-03T18:45:55.126Z,12.85
2019-05-03T18:48:24.457Z,13.30
2019-05-03T18:50:48.624Z,12.75
2019-05-03T18:53:15.354Z,12.72
2019-05-03T18:55:42.102Z,13.03
2019-05-03T18:58:08.840Z,12.91
2019-05-03T19:00:35.586Z,12.85
2019-05-03T19:03:02.327Z,12.99
2019-05-03T19:05:29.110Z,12.90
2019-05-03T19:08:00.811Z,12.86
2019-05-03T19:10:47.110Z,12.66
2019-05-03T19:13:20.019Z,12.68
2019-05-03T19:15:46.774Z,12.65
2019-05-03T19:18:25.993Z,13.17
2019-05-03T19:20:52.730Z,12.49
2019-05-03T19:23:19.466Z,13.20
2019-05-03T19:25:49.440Z,12.63
2019-05-03T19:28:13.030Z,12.53
2019-05-03T19:30:39.776Z,12.45
2019-05-03T19:33:06.498Z,12.61
2019-05-03T19:35:33.222Z,12.55
2019-05-03T19:37:59.988Z,12.40
2019-05-03T19:40:26.737Z,12.40
2019-05-03T19:42:55.164Z,12.36
2019-05-03T19:45:20.210Z,12.26
2019-05-03T19:47:46.951Z,12.13
2019-05-03T19:50:15.515Z,11.89
2019-05-03T19:52:46.359Z,11.90
2019-05-03T19:55:13.102Z,12.03
2019-05-03T19:57:39.814Z,12.74
2019-05-03T20:00:06.634Z,12.26
2019-05-03T20:02:45.284Z,12.26
2019-05-03T20:05:18.134Z,12.09
2019-05-03T20:08:05.146Z,12.16
2019-05-03T20:10:30.350Z,12.03
2019-05-03T20:12:57.069Z,12.81
2019-05-03T20:15:23.814Z,12.19
2019-05-03T20:17:59.300Z,12.06
2019-05-03T20:20:17.322Z,12.73
2019-05-03T20:22:45.447Z,12.98
2019-05-03T20:25:10.784Z,12.34
2019-05-03T20:27:37.507Z,12.22
2019-05-03T20:30:05.772Z,12.18
2019-05-03T20:32:31.447Z,12.23
2019-05-03T20:35:10.181Z,11.80
2019-05-03T20:37:25.176Z,11.58
2019-05-03T20:39:51.737Z,11.58
2019-05-03T20:42:38.874Z,12.17
2019-05-03T20:45:07.753Z,12.31
2019-05-03T20:47:40.314Z,11.65
2019-05-03T20:50:12.862Z,11.56
2019-05-03T20:52:39.590Z,11.42
2019-05-03T20:55:06.330Z,11.51
2019-05-03T20:57:33.063Z,11.65
2019-05-03T20:59:59.802Z,11.61
2019-05-03T21:02:26.522Z,11.66
2019-05-03T21:04:54.649Z,12.05
2019-05-03T21:07:20.060Z,11.79
2019-05-03T21:09:46.785Z,11.75
2019-05-03T21:12:14.918Z,11.65
2019-05-03T21:14:40.238Z,11.55
2019-05-03T21:17:27.677Z,11.50
2019-05-03T21:20:00.929Z,11.55
2019-05-03T21:22:31.849Z,11.61
2019-05-03T21:25:03.124Z,11.63
2019-05-03T21:27:29.838Z,12.22
2019-05-03T21:29:56.569Z,12.03
2019-05-03T21:32:25.066Z,11.98
2019-05-03T21:34:50.093Z,11.53
2019-05-03T21:37:16.824Z,11.28
2019-05-03T21:39:45.310Z,11.16
2019-05-03T21:42:10.310Z,11.17
2019-05-03T21:44:37.029Z,11.08
2019-05-03T21:47:11.382Z,10.78
2019-05-03T21:49:41.139Z,10.69
2019-05-03T21:52:07.878Z,10.67
2019-05-03T21:54:34.750Z,11.01
2019-05-03T21:57:01.398Z,10.80
2019-05-03T21:59:28.102Z,10.55
2019-05-03T22:01:54.840Z,10.38
2019-05-03T22:04:21.574Z,10.87
2019-05-03T22:06:48.302Z,10.81
2019-05-03T22:09:15.017Z,10.70
2019-05-03T22:11:41.760Z,10.50
2019-05-03T22:14:12.235Z,10.55
2019-05-03T22:16:46.367Z,10.62
2019-05-03T22:19:16.285Z,10.80
2019-05-03T22:21:45.283Z,10.83
2019-05-03T22:24:25.145Z,11.04
2019-05-03T22:26:53.389Z,11.20
2019-05-03T22:29:20.122Z,11.49
2019-05-03T22:31:46.858Z,11.37
2019-05-03T22:34:15.132Z,11.40
2019-05-03T22:36:44.411Z,11.32
2019-05-03T22:39:09.528Z,11.19
2019-05-03T22:41:36.269Z,11.52
2019-05-03T22:44:02.995Z,12.01
2019-05-03T22:46:29.742Z,12.17
2019-05-03T22:48:56.597Z,12.36
2019-05-03T22:51:24.451Z,12.51
2019-05-03T22:53:50.058Z,11.93
2019-05-03T22:56:16.791Z,11.72
2019-05-03T22:58:45.634Z,11.57
2019-05-03T23:01:10.325Z,11.49
2019-05-03T23:03:41.951Z,11.36
2019-05-03T23:06:19.504Z,11.16
2019-05-03T23:08:35.537Z,11.22
2019-05-03T23:11:02.302Z,10.94
2019-05-03T23:13:29.014Z,11.01
2019-05-03T23:15:55.734Z,10.74
2019-05-03T23:18:24.505Z,10.88
2019-05-03T23:20:55.895Z,11.04
2019-05-03T23:23:28.331Z,11.89
2019-05-03T23:25:55.170Z,11.32
2019-05-03T23:28:21.882Z,12.07
2019-05-03T23:30:48.639Z,11.78
2019-05-03T23:33:15.380Z,11.73
2019-05-03T23:35:42.090Z,11.52
2019-05-03T23:38:08.882Z,11.66
2019-05-03T23:40:35.612Z,11.69
2019-05-03T23:43:02.345Z,11.66
2019-05-03T23:45:29.074Z,11.60
2019-05-03T23:47:55.814Z,11.21
2019-05-03T23:50:22.550Z,11.19
2019-05-03T23:52:49.301Z,11.69
2019-05-03T23:55:25.116Z,11.16
2019-05-03T23:57:49.797Z,11.07
